Time;durP1;ratioP1;P1;durP2;ratioP2;P2;SDS_P1;SDS_P2;PMS_P1;PMS_P2;Temp;Humidity;BMP_temperature;BMP_pressure;BME280_temperature;BME280_humidity;BME280_pressure;Samples;Min_cycle;Max_cycle;Signal;HPM_P1;HPM_P2
2021/12/19 00:00:01;;;;;;;25.1;32.9;;;;;;;4.9;80.4;99350;;;;
2021/12/19 00:09:58;;;;;;;25.1;32.9;;;;;;;4.9;80.3;99350;;;;
2021/12/19 00:19:58;;;;;;;24;28;;;;;;;5;80.2;99350;;;;
2021/12/19 00:30:58;;;;;;;24;28;;;;;;;5;80.2;99350;;;;
2021/12/19 00:40:58;;;;;;;24;28;;;;;;;5;79.8;99340;;;;
2021/12/19 00:51:58;;;;;;;22;28.6;;;;;;;4.9;79.6;99330;;;;
2021/12/19 01:01:58;;;;;;;22;28.6;;;;;;;4.9;79.5;99320;;;;
2021/12/19 01:12:58;;;;;;;22;28.6;;;;;;;5;79;99310;;;;
2021/12/19 01:22:58;;;;;;;18.8;21.4;;;;;;;5;78.6;99290;;;;
2021/12/19 01:32:58;;;;;;;18.8;21.4;;;;;;;5.1;78.4;99250;;;;
2021/12/19 01:42:58;;;;;;;18.8;21.4;;;;;;;5.1;78.5;99230;;;;
2021/12/19 01:53:58;;;;;;;11.7;15.2;;;;;;;5;79.1;99200;;;;
2021/12/19 02:04:58;;;;;;;11.7;15.2;;;;;;;5;79.3;99180;;;;
2021/12/19 02:15:58;;;;;;;10.5;14.1;;;;;;;5;79.4;99170;;;;
2021/12/19 02:25:58;;;;;;;10.5;14.1;;;;;;;5;79.4;99170;;;;
2021/12/19 02:36:06;;;;;;;10.5;14.1;;;;;;;5;79.7;99150;;;;
2021/12/19 02:55:58;;;;;;;9.2;11.7;;;;;;;4.9;81;99100;;;;
2021/12/19 03:06:58;;;;;;;9.2;11.7;;;;;;;4.8;80.9;99080;;;;
2021/12/19 03:18:03;;;;;;;7.5;9.1;;;;;;;5;80.3;99060;;;;
2021/12/19 03:27:58;;;;;;;7.5;9.1;;;;;;;4.9;80.5;99020;;;;
2021/12/19 03:39:01;;;;;;;7.5;9.1;;;;;;;5;80.5;98990;;;;
2021/12/19 03:49:58;;;;;;;7.4;9.8;;;;;;;5;80.1;98960;;;;
2021/12/19 04:01:00;;;;;;;7.4;9.8;;;;;;;5.1;79.9;98940;;;;
2021/12/19 04:11:58;;;;;;;7.4;9.8;;;;;;;5.2;79.6;98940;;;;
2021/12/19 04:22:58;;;;;;;6.2;8.1;;;;;;;5.3;78.9;98900;;;;
2021/12/19 04:33:01;;;;;;;6.2;8.1;;;;;;;5.3;78.7;98890;;;;
2021/12/19 04:50:52;;;;;;;5.4;7.1;;;;;;;5.4;78.3;98870;;;;
2021/12/19 04:54:14;;;;;;;5.4;7.1;;;;;;;5.5;77.8;98850;;;;
2021/12/19 05:05:21;;;;;;;5.4;7.1;;;;;;;5.6;77.3;98850;;;;
2021/12/19 05:15:58;;;;;;;4.3;6.8;;;;;;;5.7;77.1;98860;;;;
2021/12/19 05:26:58;;;;;;;4.3;6.8;;;;;;;5.6;77.6;98850;;;;
2021/12/19 05:47:59;;;;;;;5.4;8.4;;;;;;;5.5;78.3;98830;;;;
2021/12/19 05:57:58;;;;;;;5.4;8.4;;;;;;;5.6;77.8;98820;;;;
2021/12/19 06:07:58;;;;;;;5.4;8.4;;;;;;;5.6;77.1;98830;;;;
2021/12/19 06:17:58;;;;;;;6.4;10.3;;;;;;;5.7;76.4;98820;;;;
2021/12/19 06:28:58;;;;;;;6.4;10.3;;;;;;;5.8;75.8;98810;;;;
2021/12/19 06:38:58;;;;;;;6.4;10.3;;;;;;;5.9;74.8;98790;;;;
2021/12/19 06:48:58;;;;;;;6.6;10.3;;;;;;;5.9;74.5;98800;;;;
2021/12/19 06:58:58;;;;;;;6.6;10.3;;;;;;;5.9;74.2;98780;;;;
2021/12/19 07:08:58;;;;;;;6.6;10.3;;;;;;;5.9;73.9;98770;;;;
2021/12/19 07:19:58;;;;;;;7;11.7;;;;;;;5.9;73.8;98750;;;;
2021/12/19 07:29:58;;;;;;;7;11.7;;;;;;;6;73.6;98720;;;;
2021/12/19 07:40:10;;;;;;;7;11.7;;;;;;;6;73.4;98720;;;;
2021/12/19 07:50:58;;;;;;;6.7;9.2;;;;;;;6;73.8;98730;;;;
2021/12/19 08:01:59;;;;;;;6.7;9.2;;;;;;;5.9;74.4;98750;;;;
2021/12/19 08:12:58;;;;;;;8.8;11.3;;;;;;;5.7;75.7;98750;;;;
2021/12/19 08:22:59;;;;;;;8.8;11.3;;;;;;;5.6;77.5;98760;;;;
2021/12/19 08:32:59;;;;;;;8.8;11.3;;;;;;;5.4;80.2;98780;;;;
2021/12/19 08:43:58;;;;;;;9.7;12.6;;;;;;;5.2;81.6;98780;;;;
2021/12/19 08:54:00;;;;;;;9.7;12.6;;;;;;;5.2;81.7;98770;;;;
2021/12/19 09:03:58;;;;;;;9.7;12.6;;;;;;;5.3;81.7;98770;;;;
2021/12/19 09:13:59;;;;;;;11.4;15.8;;;;;;;5.3;81.6;98740;;;;
2021/12/19 09:23:58;;;;;;;11.4;15.8;;;;;;;5.4;81.3;98730;;;;
2021/12/19 09:34:58;;;;;;;11.4;15.8;;;;;;;5.6;81;98710;;;;
2021/12/19 09:45:59;;;;;;;12.6;16.2;;;;;;;5.6;80.6;98700;;;;
2021/12/19 09:56:58;;;;;;;12.6;16.2;;;;;;;5.8;80.3;98690;;;;
2021/12/19 10:08:00;;;;;;;12.6;16.2;;;;;;;5.7;80.1;98670;;;;
2021/12/19 10:18:59;;;;;;;12.9;16.9;;;;;;;5.8;80.1;98660;;;;
2021/12/19 10:29:00;;;;;;;12.9;16.9;;;;;;;5.9;80.2;98650;;;;
2021/12/19 10:39:59;;;;;;;12.9;16.9;;;;;;;6.1;80.2;98610;;;;
2021/12/19 10:50:59;;;;;;;10.7;12.9;;;;;;;6.2;79.9;98590;;;;
2021/12/19 11:01:59;;;;;;;10.7;12.9;;;;;;;6.4;79.4;98580;;;;
2021/12/19 11:11:58;;;;;;;10.7;12.9;;;;;;;6.2;79.7;98580;;;;
2021/12/19 11:22:58;;;;;;;9.8;14;;;;;;;6.1;79.8;98550;;;;
2021/12/19 11:32:59;;;;;;;9.8;14;;;;;;;6.3;79.4;98530;;;;
2021/12/19 11:44:01;;;;;;;8.9;10.6;;;;;;;6.2;79.4;98520;;;;
2021/12/19 11:53:58;;;;;;;8.9;10.6;;;;;;;6.3;80.4;98500;;;;
2021/12/19 12:03:59;;;;;;;8.9;10.6;;;;;;;6.3;80.5;98480;;;;
2021/12/19 12:13:59;;;;;;;8.7;11.3;;;;;;;6.4;79.5;98470;;;;
2021/12/19 12:24:00;;;;;;;8.7;11.3;;;;;;;6.6;78.6;98470;;;;
2021/12/19 12:34:59;;;;;;;8.7;11.3;;;;;;;6.4;77.9;98450;;;;
2021/12/19 12:44:59;;;;;;;6.2;9.4;;;;;;;6.3;76.7;98440;;;;
2021/12/19 12:55:59;;;;;;;6.2;9.4;;;;;;;6;78.2;98440;;;;
2021/12/19 13:06:59;;;;;;;6.2;9.4;;;;;;;5.7;79.5;98430;;;;
2021/12/19 13:16:59;;;;;;;3.4;5.9;;;;;;;5.7;79.7;98420;;;;
2021/12/19 13:26:59;;;;;;;3.4;5.9;;;;;;;5.6;80.8;98420;;;;
2021/12/19 13:37:59;;;;;;;3.4;5.9;;;;;;;5.6;80.8;98410;;;;
2021/12/19 13:47:59;;;;;;;6.8;9.6;;;;;;;5.6;80.5;98380;;;;
2021/12/19 13:58:59;;;;;;;6.8;9.6;;;;;;;5.4;81.1;98370;;;;
2021/12/19 14:08:59;;;;;;;6.8;9.6;;;;;;;5.2;80.8;98360;;;;
2021/12/19 14:20:02;;;;;;;5.1;7.1;;;;;;;5.2;80.8;98350;;;;
2021/12/19 14:29:59;;;;;;;5.1;7.1;;;;;;;5.2;80.4;98340;;;;
2021/12/19 14:39:59;;;;;;;5.1;7.1;;;;;;;5.3;79.6;98340;;;;
2021/12/19 14:50:59;;;;;;;6.3;9.1;;;;;;;5.3;79.8;98310;;;;
2021/12/19 15:00:59;;;;;;;6.3;9.1;;;;;;;5.1;79.8;98310;;;;
2021/12/19 15:12:00;;;;;;;6.4;9.1;;;;;;;5.1;79.2;98310;;;;
2021/12/19 15:21:59;;;;;;;6.4;9;;;;;;;5.1;79.9;98310;;;;
2021/12/19 15:31:59;;;;;;;6.4;9;;;;;;;5.1;80.6;98310;;;;
2021/12/19 15:42:59;;;;;;;6.7;9.3;;;;;;;5;81.2;98300;;;;
2021/12/19 15:52:59;;;;;;;6.7;9.3;;;;;;;5;81.2;98290;;;;
2021/12/19 16:02:59;;;;;;;6.7;9.3;;;;;;;5;81.5;98290;;;;
2021/12/19 16:13:59;;;;;;;7.7;11.9;;;;;;;5;81.9;98280;;;;
2021/12/19 16:24:00;;;;;;;7.7;11.9;;;;;;;4.9;81.9;98280;;;;
2021/12/19 16:34:02;;;;;;;7.7;11.9;;;;;;;4.9;81.8;98270;;;;
2021/12/19 16:43:59;;;;;;;8.5;13.4;;;;;;;4.8;82.2;98250;;;;
2021/12/19 16:53:59;;;;;;;8.5;13.4;;;;;;;4.7;82.2;98230;;;;
2021/12/19 17:04:59;;;;;;;8.5;13.4;;;;;;;4.8;82.1;98210;;;;
2021/12/19 17:14:59;;;;;;;6.9;10.7;;;;;;;4.8;82.2;98180;;;;
2021/12/19 17:25:59;;;;;;;6.9;10.7;;;;;;;4.8;82.2;98180;;;;
2021/12/19 17:35:59;;;;;;;6.9;10.7;;;;;;;4.8;82;98180;;;;
2021/12/19 17:45:59;;;;;;;8.6;10.7;;;;;;;4.8;81.7;98170;;;;
2021/12/19 17:55:59;;;;;;;8.6;10.7;;;;;;;4.8;81.8;98160;;;;
2021/12/19 18:06:59;;;;;;;8.6;10.7;;;;;;;4.7;82.1;98150;;;;
2021/12/19 18:17:59;;;;;;;15;17.7;;;;;;;4.7;82.5;98150;;;;
2021/12/19 18:27:59;;;;;;;15;17.7;;;;;;;4.7;82.9;98140;;;;
2021/12/19 18:38:03;;;;;;;15;17.7;;;;;;;4.7;83.2;98130;;;;
2021/12/19 18:49:07;;;;;;;9.9;14.5;;;;;;;4.7;83.1;98130;;;;
2021/12/19 18:59:03;;;;;;;9.9;14.5;;;;;;;4.8;83.5;98140;;;;
2021/12/19 19:10:02;;;;;;;9.9;14.5;;;;;;;4.7;84;98130;;;;
2021/12/19 19:19:59;;;;;;;12.2;18.8;;;;;;;4;81.6;98230;;;;
2021/12/19 19:29:59;;;;;;;12.2;18.8;;;;;;;3;82.5;98230;;;;
2021/12/19 19:40:14;;;;;;;12.2;18.8;;;;;;;2.8;83.2;98230;;;;
2021/12/19 19:49:59;;;;;;;2.9;6.7;;;;;;;2.7;83.2;98250;;;;
2021/12/19 20:00:59;;;;;;;2.9;6.7;;;;;;;2.7;83.4;98260;;;;
2021/12/19 20:10:59;;;;;;;2.9;6.7;;;;;;;2.7;83.3;98280;;;;
2021/12/19 20:21:59;;;;;;;2.4;5.5;;;;;;;2.8;82.6;98300;;;;
2021/12/19 20:31:59;;;;;;;2.4;5.5;;;;;;;2.8;82.1;98300;;;;
2021/12/19 20:41:59;;;;;;;5.1;9.2;;;;;;;2.8;81.6;98310;;;;
2021/12/19 21:34:00;;;;;;;5.7;11.4;;;;;;;2;79.2;98380;;;;
2021/12/19 21:44:01;;;;;;;4.8;9.3;;;;;;;1.6;79.4;98390;;;;
2021/12/19 21:54:59;;;;;;;4.8;9.3;;;;;;;1.5;79;98400;;;;
2021/12/19 22:05:59;;;;;;;4.8;9.3;;;;;;;1.2;80.2;98400;;;;
2021/12/19 22:15:59;;;;;;;4.5;7.4;;;;;;;1.1;80.7;98400;;;;
2021/12/19 22:25:59;;;;;;;4.5;7.4;;;;;;;1;81.1;98410;;;;
2021/12/19 22:35:59;;;;;;;4.5;7.4;;;;;;;1.2;81.4;98420;;;;
2021/12/19 22:46:59;;;;;;;4.6;7.7;;;;;;;1.3;80.9;98430;;;;
2021/12/19 22:56:59;;;;;;;4.6;7.7;;;;;;;1.2;80.6;98440;;;;
2021/12/19 23:08:06;;;;;;;4.6;7.7;;;;;;;1.1;80.6;98430;;;;
2021/12/19 23:17:59;;;;;;;3.6;7.3;;;;;;;1;81.2;98440;;;;
2021/12/19 23:27:59;;;;;;;3.6;7.3;;;;;;;1.1;80.9;98450;;;;
2021/12/19 23:39:20;;;;;;;3.6;7.3;;;;;;;1.1;81.4;98450;;;;
2021/12/19 23:50:00;;;;;;;4.7;8.9;;;;;;;1.3;81.3;98460;;;;
2021/12/19 23:59:59;;;;;;;4.7;8.9;;;;;;;1.3;81.1;98450;;;;
